sensor_id;sensor_type;location;lat;lon;timestamp;temperature;humidity
75380;HTU21D;65641;44.714;37.756;2024-02-28T00:00:45;6.87;68.78
75380;HTU21D;65641;44.714;37.756;2024-02-28T00:01:53;6.87;68.92
75380;HTU21D;65641;44.714;37.756;2024-02-28T00:02:56;6.85;69.04
75380;HTU21D;65641;44.714;37.756;2024-02-28T00:04:00;6.83;68.88
75380;HTU21D;65641;44.714;37.756;2024-02-28T00:05:03;6.82;68.82
75380;HTU21D;65641;44.714;37.756;2024-02-28T00:06:07;6.80;68.75
75380;HTU21D;65641;44.714;37.756;2024-02-28T00:07:11;6.79;68.85
75380;HTU21D;65641;44.714;37.756;2024-02-28T00:08:15;6.79;68.94
75380;HTU21D;65641;44.714;37.756;2024-02-28T00:09:20;6.78;68.83
75380;HTU21D;65641;44.714;37.756;2024-02-28T00:10:23;6.75;68.97
75380;HTU21D;65641;44.714;37.756;2024-02-28T00:11:27;6.73;68.98
75380;HTU21D;65641;44.714;37.756;2024-02-28T00:12:30;6.72;68.92
75380;HTU21D;65641;44.714;37.756;2024-02-28T00:13:34;6.70;68.97
75380;HTU21D;65641;44.714;37.756;2024-02-28T00:14:38;6.69;69.11
75380;HTU21D;65641;44.714;37.756;2024-02-28T00:15:42;6.67;69.09
75380;HTU21D;65641;44.714;37.756;2024-02-28T00:16:46;6.68;69.20
75380;HTU21D;65641;44.714;37.756;2024-02-28T00:17:54;6.67;69.21
75380;HTU21D;65641;44.714;37.756;2024-02-28T00:18:58;6.66;69.26
75380;HTU21D;65641;44.714;37.756;2024-02-28T00:20:01;6.65;69.08
75380;HTU21D;65641;44.714;37.756;2024-02-28T00:21:05;6.65;69.15
75380;HTU21D;65641;44.714;37.756;2024-02-28T00:22:09;6.64;68.85
75380;HTU21D;65641;44.714;37.756;2024-02-28T00:23:12;6.63;69.23
75380;HTU21D;65641;44.714;37.756;2024-02-28T00:24:16;6.63;69.06
75380;HTU21D;65641;44.714;37.756;2024-02-28T00:25:19;6.60;69.10
75380;HTU21D;65641;44.714;37.756;2024-02-28T00:26:23;6.60;68.93
75380;HTU21D;65641;44.714;37.756;2024-02-28T00:27:26;6.59;68.93
75380;HTU21D;65641;44.714;37.756;2024-02-28T00:28:47;6.58;68.69
75380;HTU21D;65641;44.714;37.756;2024-02-28T00:29:54;6.56;68.77
75380;HTU21D;65641;44.714;37.756;2024-02-28T00:30:57;6.57;68.63
75380;HTU21D;65641;44.714;37.756;2024-02-28T00:32:01;6.57;68.69
75380;HTU21D;65641;44.714;37.756;2024-02-28T00:33:05;6.56;68.69
75380;HTU21D;65641;44.714;37.756;2024-02-28T00:34:08;6.54;68.32
75380;HTU21D;65641;44.714;37.756;2024-02-28T00:35:12;6.54;68.65
75380;HTU21D;65641;44.714;37.756;2024-02-28T00:36:16;6.53;68.71
75380;HTU21D;65641;44.714;37.756;2024-02-28T00:37:20;6.52;68.37
75380;HTU21D;65641;44.714;37.756;2024-02-28T00:38:24;6.51;68.51
75380;HTU21D;65641;44.714;37.756;2024-02-28T00:39:28;6.51;68.81
75380;HTU21D;65641;44.714;37.756;2024-02-28T00:40:31;6.50;68.47
75380;HTU21D;65641;44.714;37.756;2024-02-28T00:41:35;6.49;68.58
75380;HTU21D;65641;44.714;37.756;2024-02-28T00:42:38;6.49;68.46
75380;HTU21D;65641;44.714;37.756;2024-02-28T00:43:42;6.50;68.68
75380;HTU21D;65641;44.714;37.756;2024-02-28T00:44:45;6.48;68.94
75380;HTU21D;65641;44.714;37.756;2024-02-28T00:45:49;6.46;68.66
75380;HTU21D;65641;44.714;37.756;2024-02-28T00:46:52;6.46;68.60
75380;HTU21D;65641;44.714;37.756;2024-02-28T00:47:56;6.45;68.80
75380;HTU21D;65641;44.714;37.756;2024-02-28T00:48:59;6.45;68.78
75380;HTU21D;65641;44.714;37.756;2024-02-28T00:50:03;6.45;68.82
75380;HTU21D;65641;44.714;37.756;2024-02-28T00:51:07;6.44;68.75
75380;HTU21D;65641;44.714;37.756;2024-02-28T00:52:13;6.45;68.70
75380;HTU21D;65641;44.714;37.756;2024-02-28T00:53:17;6.43;68.78
75380;HTU21D;65641;44.714;37.756;2024-02-28T00:54:21;6.43;68.49
75380;HTU21D;65641;44.714;37.756;2024-02-28T00:55:26;6.44;68.69
75380;HTU21D;65641;44.714;37.756;2024-02-28T00:56:30;6.44;68.64
75380;HTU21D;65641;44.714;37.756;2024-02-28T00:57:34;6.43;68.75
75380;HTU21D;65641;44.714;37.756;2024-02-28T00:58:37;6.44;68.81
75380;HTU21D;65641;44.714;37.756;2024-02-28T00:59:41;6.43;68.45
75380;HTU21D;65641;44.714;37.756;2024-02-28T01:00:50;6.45;68.42
75380;HTU21D;65641;44.714;37.756;2024-02-28T01:01:53;6.48;68.64
75380;HTU21D;65641;44.714;37.756;2024-02-28T01:02:57;6.48;68.22
75380;HTU21D;65641;44.714;37.756;2024-02-28T01:04:00;6.50;68.35
75380;HTU21D;65641;44.714;37.756;2024-02-28T01:05:04;6.51;68.27
75380;HTU21D;65641;44.714;37.756;2024-02-28T01:06:07;6.54;68.25
75380;HTU21D;65641;44.714;37.756;2024-02-28T01:07:11;6.55;68.36
75380;HTU21D;65641;44.714;37.756;2024-02-28T01:08:14;6.55;68.20
75380;HTU21D;65641;44.714;37.756;2024-02-28T01:09:21;6.58;68.14
75380;HTU21D;65641;44.714;37.756;2024-02-28T01:10:24;6.58;68.12
75380;HTU21D;65641;44.714;37.756;2024-02-28T01:11:28;6.59;68.20
75380;HTU21D;65641;44.714;37.756;2024-02-28T01:12:31;6.60;68.00
75380;HTU21D;65641;44.714;37.756;2024-02-28T01:13:35;6.61;67.93
75380;HTU21D;65641;44.714;37.756;2024-02-28T01:14:39;6.61;67.94
75380;HTU21D;65641;44.714;37.756;2024-02-28T01:15:42;6.64;67.94
75380;HTU21D;65641;44.714;37.756;2024-02-28T01:16:46;6.64;67.94
75380;HTU21D;65641;44.714;37.756;2024-02-28T01:17:49;6.63;67.87
75380;HTU21D;65641;44.714;37.756;2024-02-28T01:18:53;6.63;67.97
75380;HTU21D;65641;44.714;37.756;2024-02-28T01:19:57;6.61;67.99
75380;HTU21D;65641;44.714;37.756;2024-02-28T01:21:00;6.63;67.91
75380;HTU21D;65641;44.714;37.756;2024-02-28T01:22:04;6.61;67.84
75380;HTU21D;65641;44.714;37.756;2024-02-28T01:23:07;6.61;67.62
75380;HTU21D;65641;44.714;37.756;2024-02-28T01:24:11;6.60;67.76
75380;HTU21D;65641;44.714;37.756;2024-02-28T01:25:14;6.58;67.92
75380;HTU21D;65641;44.714;37.756;2024-02-28T01:26:19;6.59;67.88
75380;HTU21D;65641;44.714;37.756;2024-02-28T01:27:25;6.57;67.88
75380;HTU21D;65641;44.714;37.756;2024-02-28T01:28:28;6.56;67.95
75380;HTU21D;65641;44.714;37.756;2024-02-28T01:29:32;6.54;68.03
75380;HTU21D;65641;44.714;37.756;2024-02-28T01:30:35;6.52;67.91
75380;HTU21D;65641;44.714;37.756;2024-02-28T01:31:39;6.51;68.10
75380;HTU21D;65641;44.714;37.756;2024-02-28T01:32:42;6.51;68.07
75380;HTU21D;65641;44.714;37.756;2024-02-28T01:33:46;6.50;67.89
75380;HTU21D;65641;44.714;37.756;2024-02-28T01:34:49;6.50;68.00
75380;HTU21D;65641;44.714;37.756;2024-02-28T01:35:53;6.49;68.02
75380;HTU21D;65641;44.714;37.756;2024-02-28T01:37:00;6.48;67.99
75380;HTU21D;65641;44.714;37.756;2024-02-28T01:38:04;6.48;68.00
75380;HTU21D;65641;44.714;37.756;2024-02-28T01:39:07;6.48;68.17
75380;HTU21D;65641;44.714;37.756;2024-02-28T01:40:11;6.48;68.13
75380;HTU21D;65641;44.714;37.756;2024-02-28T01:41:15;6.43;68.04
75380;HTU21D;65641;44.714;37.756;2024-02-28T01:42:18;6.43;68.06
75380;HTU21D;65641;44.714;37.756;2024-02-28T01:43:22;6.43;68.06
75380;HTU21D;65641;44.714;37.756;2024-02-28T01:44:25;6.43;68.04
75380;HTU21D;65641;44.714;37.756;2024-02-28T01:45:29;6.41;67.93
75380;HTU21D;65641;44.714;37.756;2024-02-28T01:46:32;6.42;68.04
75380;HTU21D;65641;44.714;37.756;2024-02-28T01:47:36;6.41;68.21
75380;HTU21D;65641;44.714;37.756;2024-02-28T01:48:40;6.38;68.20
75380;HTU21D;65641;44.714;37.756;2024-02-28T01:49:45;6.39;68.36
75380;HTU21D;65641;44.714;37.756;2024-02-28T01:50:50;6.39;68.23
75380;HTU21D;65641;44.714;37.756;2024-02-28T01:51:54;6.40;68.25
75380;HTU21D;65641;44.714;37.756;2024-02-28T01:53:00;6.40;68.07
75380;HTU21D;65641;44.714;37.756;2024-02-28T01:54:03;6.41;68.08
75380;HTU21D;65641;44.714;37.756;2024-02-28T01:55:08;6.41;68.03
75380;HTU21D;65641;44.714;37.756;2024-02-28T01:56:14;6.43;68.26
75380;HTU21D;65641;44.714;37.756;2024-02-28T01:57:19;6.43;68.21
75380;HTU21D;65641;44.714;37.756;2024-02-28T01:58:23;6.45;68.20
75380;HTU21D;65641;44.714;37.756;2024-02-28T01:59:27;6.45;68.13
75380;HTU21D;65641;44.714;37.756;2024-02-28T02:00:34;6.46;68.12
75380;HTU21D;65641;44.714;37.756;2024-02-28T02:01:38;6.49;68.11
75380;HTU21D;65641;44.714;37.756;2024-02-28T02:02:41;6.48;68.16
75380;HTU21D;65641;44.714;37.756;2024-02-28T02:03:46;6.51;68.02
75380;HTU21D;65641;44.714;37.756;2024-02-28T02:04:50;6.51;68.08
75380;HTU21D;65641;44.714;37.756;2024-02-28T02:05:55;6.53;68.03
75380;HTU21D;65641;44.714;37.756;2024-02-28T02:06:59;6.53;67.84
75380;HTU21D;65641;44.714;37.756;2024-02-28T02:08:03;6.54;67.98
75380;HTU21D;65641;44.714;37.756;2024-02-28T02:09:07;6.54;67.96
75380;HTU21D;65641;44.714;37.756;2024-02-28T02:10:10;6.53;67.97
75380;HTU21D;65641;44.714;37.756;2024-02-28T02:11:17;6.53;67.97
75380;HTU21D;65641;44.714;37.756;2024-02-28T02:12:23;6.52;68.13
75380;HTU21D;65641;44.714;37.756;2024-02-28T02:13:27;6.50;68.15
75380;HTU21D;65641;44.714;37.756;2024-02-28T02:14:30;6.52;68.25
75380;HTU21D;65641;44.714;37.756;2024-02-28T02:15:34;6.52;68.20
75380;HTU21D;65641;44.714;37.756;2024-02-28T02:16:37;6.50;68.31
75380;HTU21D;65641;44.714;37.756;2024-02-28T02:17:41;6.51;68.26
75380;HTU21D;65641;44.714;37.756;2024-02-28T02:18:46;6.53;68.37
75380;HTU21D;65641;44.714;37.756;2024-02-28T02:19:50;6.53;68.13
75380;HTU21D;65641;44.714;37.756;2024-02-28T02:21:02;6.55;68.35
75380;HTU21D;65641;44.714;37.756;2024-02-28T02:22:08;6.55;68.23
75380;HTU21D;65641;44.714;37.756;2024-02-28T02:23:14;6.57;68.03
75380;HTU21D;65641;44.714;37.756;2024-02-28T02:24:17;6.58;67.88
75380;HTU21D;65641;44.714;37.756;2024-02-28T02:25:21;6.58;68.03
75380;HTU21D;65641;44.714;37.756;2024-02-28T02:26:24;6.58;67.85
75380;HTU21D;65641;44.714;37.756;2024-02-28T02:27:28;6.59;67.81
75380;HTU21D;65641;44.714;37.756;2024-02-28T02:28:31;6.59;67.78
75380;HTU21D;65641;44.714;37.756;2024-02-28T02:29:35;6.58;67.68
75380;HTU21D;65641;44.714;37.756;2024-02-28T02:30:39;6.58;67.65
75380;HTU21D;65641;44.714;37.756;2024-02-28T02:31:42;6.57;67.67
75380;HTU21D;65641;44.714;37.756;2024-02-28T02:32:46;6.57;67.77
75380;HTU21D;65641;44.714;37.756;2024-02-28T02:33:50;6.56;67.78
75380;HTU21D;65641;44.714;37.756;2024-02-28T02:34:53;6.56;67.75
75380;HTU21D;65641;44.714;37.756;2024-02-28T02:35:56;6.54;67.72
75380;HTU21D;65641;44.714;37.756;2024-02-28T02:37:00;6.54;67.79
75380;HTU21D;65641;44.714;37.756;2024-02-28T02:38:04;6.53;67.81
75380;HTU21D;65641;44.714;37.756;2024-02-28T02:39:07;6.53;67.93
75380;HTU21D;65641;44.714;37.756;2024-02-28T02:40:12;6.52;67.67
75380;HTU21D;65641;44.714;37.756;2024-02-28T02:41:15;6.51;67.93
75380;HTU21D;65641;44.714;37.756;2024-02-28T02:42:18;6.50;68.18
75380;HTU21D;65641;44.714;37.756;2024-02-28T02:43:22;6.50;67.92
75380;HTU21D;65641;44.714;37.756;2024-02-28T02:44:25;6.50;67.97
75380;HTU21D;65641;44.714;37.756;2024-02-28T02:45:29;6.49;68.01
75380;HTU21D;65641;44.714;37.756;2024-02-28T02:46:32;6.49;68.11
75380;HTU21D;65641;44.714;37.756;2024-02-28T02:47:36;6.50;67.99
75380;HTU21D;65641;44.714;37.756;2024-02-28T02:48:40;6.49;67.78
75380;HTU21D;65641;44.714;37.756;2024-02-28T02:49:43;6.49;68.04
75380;HTU21D;65641;44.714;37.756;2024-02-28T02:50:47;6.48;67.83
75380;HTU21D;65641;44.714;37.756;2024-02-28T02:51:50;6.46;68.00
75380;HTU21D;65641;44.714;37.756;2024-02-28T02:52:54;6.48;68.01
75380;HTU21D;65641;44.714;37.756;2024-02-28T02:53:57;6.48;68.07
75380;HTU21D;65641;44.714;37.756;2024-02-28T02:55:01;6.45;68.07
75380;HTU21D;65641;44.714;37.756;2024-02-28T02:56:06;6.48;67.93
75380;HTU21D;65641;44.714;37.756;2024-02-28T02:57:10;6.45;67.97
75380;HTU21D;65641;44.714;37.756;2024-02-28T02:58:13;6.48;67.91
75380;HTU21D;65641;44.714;37.756;2024-02-28T02:59:17;6.46;67.78
75380;HTU21D;65641;44.714;37.756;2024-02-28T03:00:24;6.46;68.03
75380;HTU21D;65641;44.714;37.756;2024-02-28T03:01:27;6.46;67.98
75380;HTU21D;65641;44.714;37.756;2024-02-28T03:02:31;6.45;68.05
75380;HTU21D;65641;44.714;37.756;2024-02-28T03:03:35;6.45;67.91
75380;HTU21D;65641;44.714;37.756;2024-02-28T03:04:40;6.45;67.94
75380;HTU21D;65641;44.714;37.756;2024-02-28T03:05:44;6.46;67.95
75380;HTU21D;65641;44.714;37.756;2024-02-28T03:06:47;6.46;67.85
75380;HTU21D;65641;44.714;37.756;2024-02-28T03:07:51;6.46;67.77
75380;HTU21D;65641;44.714;37.756;2024-02-28T03:08:55;6.45;67.86
75380;HTU21D;65641;44.714;37.756;2024-02-28T03:09:58;6.46;67.77
75380;HTU21D;65641;44.714;37.756;2024-02-28T03:11:02;6.46;67.94
75380;HTU21D;65641;44.714;37.756;2024-02-28T03:12:07;6.45;67.85
75380;HTU21D;65641;44.714;37.756;2024-02-28T03:13:11;6.45;67.84
75380;HTU21D;65641;44.714;37.756;2024-02-28T03:14:15;6.46;67.75
75380;HTU21D;65641;44.714;37.756;2024-02-28T03:15:19;6.45;67.76
75380;HTU21D;65641;44.714;37.756;2024-02-28T03:16:22;6.45;67.81
75380;HTU21D;65641;44.714;37.756;2024-02-28T03:17:25;6.44;67.84
75380;HTU21D;65641;44.714;37.756;2024-02-28T03:18:29;6.45;67.78
75380;HTU21D;65641;44.714;37.756;2024-02-28T03:19:32;6.44;67.84
75380;HTU21D;65641;44.714;37.756;2024-02-28T03:20:38;6.45;67.94
75380;HTU21D;65641;44.714;37.756;2024-02-28T03:21:42;6.45;67.84
75380;HTU21D;65641;44.714;37.756;2024-02-28T03:22:46;6.45;67.88
75380;HTU21D;65641;44.714;37.756;2024-02-28T03:23:49;6.46;67.87
75380;HTU21D;65641;44.714;37.756;2024-02-28T03:24:53;6.45;67.59
75380;HTU21D;65641;44.714;37.756;2024-02-28T03:25:56;6.45;67.72
75380;HTU21D;65641;44.714;37.756;2024-02-28T03:27:00;6.43;67.84
75380;HTU21D;65641;44.714;37.756;2024-02-28T03:28:04;6.43;68.01
75380;HTU21D;65641;44.714;37.756;2024-02-28T03:29:07;6.44;67.75
75380;HTU21D;65641;44.714;37.756;2024-02-28T03:30:11;6.44;67.93
75380;HTU21D;65641;44.714;37.756;2024-02-28T03:31:14;6.43;67.74
75380;HTU21D;65641;44.714;37.756;2024-02-28T03:32:18;6.42;67.65
75380;HTU21D;65641;44.714;37.756;2024-02-28T03:33:21;6.43;67.78
75380;HTU21D;65641;44.714;37.756;2024-02-28T03:34:25;6.42;67.68
75380;HTU21D;65641;44.714;37.756;2024-02-28T03:35:28;6.42;67.62
75380;HTU21D;65641;44.714;37.756;2024-02-28T03:36:32;6.42;67.49
75380;HTU21D;65641;44.714;37.756;2024-02-28T03:37:36;6.42;67.74
75380;HTU21D;65641;44.714;37.756;2024-02-28T03:38:39;6.42;67.42
75380;HTU21D;65641;44.714;37.756;2024-02-28T03:39:43;6.41;67.59
75380;HTU21D;65641;44.714;37.756;2024-02-28T03:40:46;6.42;67.58
75380;HTU21D;65641;44.714;37.756;2024-02-28T03:41:50;6.43;67.65
75380;HTU21D;65641;44.714;37.756;2024-02-28T03:42:53;6.42;67.57
75380;HTU21D;65641;44.714;37.756;2024-02-28T03:43:57;6.42;67.72
75380;HTU21D;65641;44.714;37.756;2024-02-28T03:45:01;6.40;67.67
75380;HTU21D;65641;44.714;37.756;2024-02-28T03:46:04;6.40;67.65
75380;HTU21D;65641;44.714;37.756;2024-02-28T03:47:08;6.41;67.59
75380;HTU21D;65641;44.714;37.756;2024-02-28T03:48:11;6.41;67.78
75380;HTU21D;65641;44.714;37.756;2024-02-28T03:49:15;6.41;67.76
75380;HTU21D;65641;44.714;37.756;2024-02-28T03:50:18;6.40;67.81
75380;HTU21D;65641;44.714;37.756;2024-02-28T03:51:22;6.39;67.69
75380;HTU21D;65641;44.714;37.756;2024-02-28T03:52:25;6.38;67.67
75380;HTU21D;65641;44.714;37.756;2024-02-28T03:53:29;6.38;67.75
75380;HTU21D;65641;44.714;37.756;2024-02-28T03:54:32;6.37;67.75
75380;HTU21D;65641;44.714;37.756;2024-02-28T03:55:36;6.37;67.78
75380;HTU21D;65641;44.714;37.756;2024-02-28T03:56:41;6.37;67.77
75380;HTU21D;65641;44.714;37.756;2024-02-28T03:57:49;6.38;67.54
75380;HTU21D;65641;44.714;37.756;2024-02-28T03:58:55;6.37;67.75
75380;HTU21D;65641;44.714;37.756;2024-02-28T04:00:01;6.38;67.55
75380;HTU21D;65641;44.714;37.756;2024-02-28T04:01:13;6.36;67.65
75380;HTU21D;65641;44.714;37.756;2024-02-28T04:02:17;6.36;67.52
75380;HTU21D;65641;44.714;37.756;2024-02-28T04:03:20;6.37;67.65
75380;HTU21D;65641;44.714;37.756;2024-02-28T04:04:24;6.36;67.46
75380;HTU21D;65641;44.714;37.756;2024-02-28T04:05:27;6.37;67.55
75380;HTU21D;65641;44.714;37.756;2024-02-28T04:06:31;6.36;67.61
75380;HTU21D;65641;44.714;37.756;2024-02-28T04:07:34;6.35;67.62
75380;HTU21D;65641;44.714;37.756;2024-02-28T04:08:40;6.36;67.47
75380;HTU21D;65641;44.714;37.756;2024-02-28T04:09:43;6.36;67.50
75380;HTU21D;65641;44.714;37.756;2024-02-28T04:10:47;6.36;67.52
75380;HTU21D;65641;44.714;37.756;2024-02-28T04:11:50;6.37;67.68
75380;HTU21D;65641;44.714;37.756;2024-02-28T04:12:54;6.38;67.48
75380;HTU21D;65641;44.714;37.756;2024-02-28T04:13:58;6.37;67.52
75380;HTU21D;65641;44.714;37.756;2024-02-28T04:15:02;6.36;67.53
75380;HTU21D;65641;44.714;37.756;2024-02-28T04:16:07;6.37;67.55
75380;HTU21D;65641;44.714;37.756;2024-02-28T04:17:11;6.38;67.53
75380;HTU21D;65641;44.714;37.756;2024-02-28T04:18:15;6.37;67.39
75380;HTU21D;65641;44.714;37.756;2024-02-28T04:19:18;6.36;67.46
75380;HTU21D;65641;44.714;37.756;2024-02-28T04:20:22;6.38;67.52
75380;HTU21D;65641;44.714;37.756;2024-02-28T04:21:25;6.40;67.62
75380;HTU21D;65641;44.714;37.756;2024-02-28T04:22:29;6.40;67.49
75380;HTU21D;65641;44.714;37.756;2024-02-28T04:23:33;6.40;67.28
75380;HTU21D;65641;44.714;37.756;2024-02-28T04:24:37;6.41;67.41
75380;HTU21D;65641;44.714;37.756;2024-02-28T04:25:40;6.42;67.21
75380;HTU21D;65641;44.714;37.756;2024-02-28T04:26:44;6.43;67.17
75380;HTU21D;65641;44.714;37.756;2024-02-28T04:27:47;6.42;67.07
75380;HTU21D;65641;44.714;37.756;2024-02-28T04:28:51;6.44;66.97
75380;HTU21D;65641;44.714;37.756;2024-02-28T04:29:54;6.44;67.03
75380;HTU21D;65641;44.714;37.756;2024-02-28T04:30:58;6.45;67.08
75380;HTU21D;65641;44.714;37.756;2024-02-28T04:32:01;6.46;66.81
75380;HTU21D;65641;44.714;37.756;2024-02-28T04:33:05;6.49;66.88
75380;HTU21D;65641;44.714;37.756;2024-02-28T04:34:09;6.50;66.56
75380;HTU21D;65641;44.714;37.756;2024-02-28T04:35:12;6.49;66.71
75380;HTU21D;65641;44.714;37.756;2024-02-28T04:36:18;6.52;66.56
75380;HTU21D;65641;44.714;37.756;2024-02-28T04:37:22;6.53;66.51
75380;HTU21D;65641;44.714;37.756;2024-02-28T04:38:26;6.53;66.30
75380;HTU21D;65641;44.714;37.756;2024-02-28T04:39:29;6.55;66.39
75380;HTU21D;65641;44.714;37.756;2024-02-28T04:40:33;6.56;66.31
75380;HTU21D;65641;44.714;37.756;2024-02-28T04:41:37;6.57;66.32
75380;HTU21D;65641;44.714;37.756;2024-02-28T04:42:41;6.59;66.15
75380;HTU21D;65641;44.714;37.756;2024-02-28T04:43:44;6.59;66.12
75380;HTU21D;65641;44.714;37.756;2024-02-28T04:44:48;6.61;66.16
75380;HTU21D;65641;44.714;37.756;2024-02-28T04:45:51;6.63;66.14
75380;HTU21D;65641;44.714;37.756;2024-02-28T04:46:55;6.64;66.08
75380;HTU21D;65641;44.714;37.756;2024-02-28T04:47:58;6.67;66.03
75380;HTU21D;65641;44.714;37.756;2024-02-28T04:49:02;6.68;66.17
75380;HTU21D;65641;44.714;37.756;2024-02-28T04:50:06;6.70;65.98
75380;HTU21D;65641;44.714;37.756;2024-02-28T04:51:09;6.71;65.70
75380;HTU21D;65641;44.714;37.756;2024-02-28T04:52:13;6.72;65.54
75380;HTU21D;65641;44.714;37.756;2024-02-28T04:53:16;6.73;65.67
75380;HTU21D;65641;44.714;37.756;2024-02-28T04:54:20;6.74;65.73
75380;HTU21D;65641;44.714;37.756;2024-02-28T04:55:23;6.76;65.54
75380;HTU21D;65641;44.714;37.756;2024-02-28T04:56:27;6.78;65.64
75380;HTU21D;65641;44.714;37.756;2024-02-28T04:57:30;6.79;65.71
75380;HTU21D;65641;44.714;37.756;2024-02-28T04:58:36;6.81;65.72
75380;HTU21D;65641;44.714;37.756;2024-02-28T04:59:41;6.82;65.72
75380;HTU21D;65641;44.714;37.756;2024-02-28T05:00:45;6.85;65.75
75380;HTU21D;65641;44.714;37.756;2024-02-28T05:01:49;6.87;65.68
75380;HTU21D;65641;44.714;37.756;2024-02-28T05:02:52;6.89;65.67
75380;HTU21D;65641;44.714;37.756;2024-02-28T05:03:56;6.91;65.59
75380;HTU21D;65641;44.714;37.756;2024-02-28T05:04:59;6.96;65.50
75380;HTU21D;65641;44.714;37.756;2024-02-28T05:06:03;6.99;65.48
75380;HTU21D;65641;44.714;37.756;2024-02-28T05:07:07;7.01;65.27
75380;HTU21D;65641;44.714;37.756;2024-02-28T05:08:10;7.02;65.30
75380;HTU21D;65641;44.714;37.756;2024-02-28T05:09:14;7.05;65.14
75380;HTU21D;65641;44.714;37.756;2024-02-28T05:10:18;7.09;65.04
75380;HTU21D;65641;44.714;37.756;2024-02-28T05:11:21;7.13;65.01
75380;HTU21D;65641;44.714;37.756;2024-02-28T05:12:25;7.16;65.01
75380;HTU21D;65641;44.714;37.756;2024-02-28T05:13:29;7.19;65.03
75380;HTU21D;65641;44.714;37.756;2024-02-28T05:14:32;7.20;64.92
75380;HTU21D;65641;44.714;37.756;2024-02-28T05:15:35;7.25;64.74
75380;HTU21D;65641;44.714;37.756;2024-02-28T05:16:39;7.27;64.67
75380;HTU21D;65641;44.714;37.756;2024-02-28T05:17:43;7.28;64.73
75380;HTU21D;65641;44.714;37.756;2024-02-28T05:18:47;7.31;64.71
75380;HTU21D;65641;44.714;37.756;2024-02-28T05:19:50;7.34;64.47
75380;HTU21D;65641;44.714;37.756;2024-02-28T05:20:54;7.35;64.43
75380;HTU21D;65641;44.714;37.756;2024-02-28T05:21:58;7.41;64.41
75380;HTU21D;65641;44.714;37.756;2024-02-28T05:23:01;7.45;64.39
75380;HTU21D;65641;44.714;37.756;2024-02-28T05:24:05;7.46;64.36
75380;HTU21D;65641;44.714;37.756;2024-02-28T05:25:09;7.50;64.16
75380;HTU21D;65641;44.714;37.756;2024-02-28T05:26:12;7.52;64.14
75380;HTU21D;65641;44.714;37.756;2024-02-28T05:27:16;7.54;64.15
75380;HTU21D;65641;44.714;37.756;2024-02-28T05:28:19;7.58;64.04
75380;HTU21D;65641;44.714;37.756;2024-02-28T05:29:23;7.59;64.08
75380;HTU21D;65641;44.714;37.756;2024-02-28T05:30:27;7.61;63.80
75380;HTU21D;65641;44.714;37.756;2024-02-28T05:31:31;7.63;63.83
75380;HTU21D;65641;44.714;37.756;2024-02-28T05:32:35;7.65;63.99
75380;HTU21D;65641;44.714;37.756;2024-02-28T05:33:40;7.67;64.04
75380;HTU21D;65641;44.714;37.756;2024-02-28T05:34:45;7.70;63.92
75380;HTU21D;65641;44.714;37.756;2024-02-28T05:35:48;7.70;63.89
75380;HTU21D;65641;44.714;37.756;2024-02-28T05:36:52;7.73;63.85
75380;HTU21D;65641;44.714;37.756;2024-02-28T05:37:56;7.73;63.85
75380;HTU21D;65641;44.714;37.756;2024-02-28T05:39:00;7.77;63.66
75380;HTU21D;65641;44.714;37.756;2024-02-28T05:40:08;7.79;63.85
75380;HTU21D;65641;44.714;37.756;2024-02-28T05:41:12;7.81;63.79
75380;HTU21D;65641;44.714;37.756;2024-02-28T05:42:17;7.84;63.53
75380;HTU21D;65641;44.714;37.756;2024-02-28T05:43:25;7.85;63.50
75380;HTU21D;65641;44.714;37.756;2024-02-28T05:44:30;7.86;63.66
75380;HTU21D;65641;44.714;37.756;2024-02-28T05:45:34;7.89;63.58
75380;HTU21D;65641;44.714;37.756;2024-02-28T05:46:38;7.91;63.32
75380;HTU21D;65641;44.714;37.756;2024-02-28T05:47:41;7.92;63.42
75380;HTU21D;65641;44.714;37.756;2024-02-28T05:48:46;7.94;63.38
75380;HTU21D;65641;44.714;37.756;2024-02-28T05:49:49;7.97;63.12
75380;HTU21D;65641;44.714;37.756;2024-02-28T05:50:53;8.00;63.06
75380;HTU21D;65641;44.714;37.756;2024-02-28T05:51:56;8.01;63.18
75380;HTU21D;65641;44.714;37.756;2024-02-28T05:53:00;8.02;63.11
75380;HTU21D;65641;44.714;37.756;2024-02-28T05:54:04;8.06;62.92
75380;HTU21D;65641;44.714;37.756;2024-02-28T05:55:08;8.06;63.11
75380;HTU21D;65641;44.714;37.756;2024-02-28T05:56:11;8.09;62.89
75380;HTU21D;65641;44.714;37.756;2024-02-28T05:57:18;8.11;63.02
75380;HTU21D;65641;44.714;37.756;2024-02-28T05:58:22;8.14;62.72
75380;HTU21D;65641;44.714;37.756;2024-02-28T05:59:26;8.17;62.93
75380;HTU21D;65641;44.714;37.756;2024-02-28T06:00:29;8.19;62.89
75380;HTU21D;65641;44.714;37.756;2024-02-28T06:01:33;8.21;62.87
75380;HTU21D;65641;44.714;37.756;2024-02-28T06:02:37;8.26;62.64
75380;HTU21D;65641;44.714;37.756;2024-02-28T06:03:41;8.27;62.70
75380;HTU21D;65641;44.714;37.756;2024-02-28T06:04:44;8.31;62.70
75380;HTU21D;65641;44.714;37.756;2024-02-28T06:05:48;8.32;62.54
75380;HTU21D;65641;44.714;37.756;2024-02-28T06:06:51;8.34;62.54
75380;HTU21D;65641;44.714;37.756;2024-02-28T06:07:55;8.36;62.52
75380;HTU21D;65641;44.714;37.756;2024-02-28T06:08:58;8.38;62.56
75380;HTU21D;65641;44.714;37.756;2024-02-28T06:10:02;8.41;62.49
75380;HTU21D;65641;44.714;37.756;2024-02-28T06:11:07;8.44;62.57
75380;HTU21D;65641;44.714;37.756;2024-02-28T06:12:10;8.46;62.21
75380;HTU21D;65641;44.714;37.756;2024-02-28T06:13:14;8.48;62.41
75380;HTU21D;65641;44.714;37.756;2024-02-28T06:14:18;8.51;62.46
75380;HTU21D;65641;44.714;37.756;2024-02-28T06:15:21;8.53;62.05
75380;HTU21D;65641;44.714;37.756;2024-02-28T06:16:25;8.55;62.02
75380;HTU21D;65641;44.714;37.756;2024-02-28T06:17:28;8.58;62.21
75380;HTU21D;65641;44.714;37.756;2024-02-28T06:18:32;8.60;61.89
75380;HTU21D;65641;44.714;37.756;2024-02-28T06:19:36;8.65;62.01
75380;HTU21D;65641;44.714;37.756;2024-02-28T06:20:40;8.65;61.96
75380;HTU21D;65641;44.714;37.756;2024-02-28T06:21:43;8.70;61.95
75380;HTU21D;65641;44.714;37.756;2024-02-28T06:22:48;8.72;61.90
75380;HTU21D;65641;44.714;37.756;2024-02-28T06:23:52;8.73;62.02
75380;HTU21D;65641;44.714;37.756;2024-02-28T06:24:56;8.76;61.77
75380;HTU21D;65641;44.714;37.756;2024-02-28T06:25:59;8.78;61.83
75380;HTU21D;65641;44.714;37.756;2024-02-28T06:27:03;8.79;61.68
75380;HTU21D;65641;44.714;37.756;2024-02-28T06:28:07;8.82;61.94
75380;HTU21D;65641;44.714;37.756;2024-02-28T06:29:10;8.86;61.82
75380;HTU21D;65641;44.714;37.756;2024-02-28T06:30:16;8.89;61.78
75380;HTU21D;65641;44.714;37.756;2024-02-28T06:31:20;8.91;61.76
75380;HTU21D;65641;44.714;37.756;2024-02-28T06:32:24;8.93;61.63
75380;HTU21D;65641;44.714;37.756;2024-02-28T06:33:28;8.97;61.71
75380;HTU21D;65641;44.714;37.756;2024-02-28T06:34:32;9.00;61.63
75380;HTU21D;65641;44.714;37.756;2024-02-28T06:35:35;9.01;61.57
75380;HTU21D;65641;44.714;37.756;2024-02-28T06:36:39;9.05;61.41
75380;HTU21D;65641;44.714;37.756;2024-02-28T06:37:42;9.07;61.47